createdAt,value
2019-05-21T00:01:08.245Z,68.93
2019-05-21T00:03:39.328Z,68.93
2019-05-21T00:06:10.093Z,69.02
2019-05-21T00:08:40.961Z,68.96
2019-05-21T00:11:12.858Z,68.40
2019-05-21T00:13:43.685Z,68.11
2019-05-21T00:16:14.218Z,68.08
2019-05-21T00:18:44.987Z,67.58
2019-05-21T00:21:15.812Z,67.49
2019-05-21T00:23:49.029Z,67.04
2019-05-21T00:26:20.905Z,66.72
2019-05-21T00:29:26.971Z,66.31
2019-05-21T00:32:32.516Z,66.01
2019-05-21T00:35:50.344Z,65.75
2019-05-21T00:38:56.006Z,65.16
2019-05-21T00:42:04.296Z,64.65
2019-05-21T00:44:39.449Z,64.79
2019-05-21T00:47:12.054Z,64.87
2019-05-21T00:49:43.015Z,65.11
2019-05-21T00:52:13.899Z,65.27
2019-05-21T00:54:44.491Z,65.39
2019-05-21T00:57:15.405Z,65.46
2019-05-21T00:59:47.268Z,65.61
2019-05-21T01:02:18.001Z,65.55
2019-05-21T01:05:00.205Z,65.52
2019-05-21T01:07:22.463Z,65.58
2019-05-21T01:09:53.433Z,65.79
2019-05-21T01:12:24.245Z,65.74
2019-05-21T01:14:54.906Z,66.23
2019-05-21T01:17:25.815Z,67.57
2019-05-21T01:19:56.746Z,68.36
2019-05-21T01:22:27.455Z,68.87
2019-05-21T01:24:58.284Z,69.14
2019-05-21T01:27:28.970Z,69.04
2019-05-21T01:29:59.873Z,68.69
2019-05-21T01:32:30.919Z,69.01
2019-05-21T01:35:16.087Z,70.17
2019-05-21T01:37:34.506Z,70.38
2019-05-21T01:40:05.439Z,70.44
2019-05-21T01:42:37.996Z,70.62
2019-05-21T01:45:10.442Z,70.88
2019-05-21T01:47:41.258Z,70.98
2019-05-21T01:50:12.112Z,70.69
2019-05-21T01:52:43.965Z,70.19
2019-05-21T01:55:14.779Z,69.93
2019-05-21T01:57:45.376Z,70.65
2019-05-21T02:00:16.424Z,70.58
2019-05-21T02:02:47.067Z,70.91
2019-05-21T02:05:32.143Z,71.06
2019-05-21T02:07:51.873Z,71.25
2019-05-21T02:10:22.562Z,71.27
2019-05-21T02:12:53.930Z,71.01
2019-05-21T02:15:25.084Z,70.71
2019-05-21T02:17:55.887Z,70.16
2019-05-21T02:20:26.472Z,69.61
2019-05-21T02:22:57.395Z,69.36
2019-05-21T02:25:28.241Z,69.31
2019-05-21T02:28:00.970Z,69.43
2019-05-21T02:30:31.761Z,69.36
2019-05-21T02:33:03.545Z,68.96
2019-05-21T02:35:52.379Z,68.59
2019-05-21T02:38:06.631Z,68.36
2019-05-21T02:40:37.564Z,68.20
2019-05-21T02:43:08.475Z,68.54
2019-05-21T02:45:39.264Z,68.80
2019-05-21T02:48:10.183Z,68.98
2019-05-21T02:50:40.886Z,68.92
2019-05-21T02:53:11.705Z,68.76
2019-05-21T02:55:42.603Z,68.10
2019-05-21T02:58:13.359Z,68.04
2019-05-21T03:00:57.194Z,68.10
2019-05-21T03:03:30.145Z,67.43
2019-05-21T03:06:13.280Z,67.13
2019-05-21T03:08:33.745Z,66.60
2019-05-21T03:11:04.473Z,66.59
2019-05-21T03:13:35.263Z,66.16
2019-05-21T03:16:08.092Z,63.83
2019-05-21T03:18:38.891Z,62.84
2019-05-21T03:21:09.925Z,62.90
2019-05-21T03:23:40.789Z,61.19
2019-05-21T03:26:13.236Z,58.76
2019-05-21T03:28:45.081Z,56.11
2019-05-21T03:31:15.953Z,53.50
2019-05-21T03:33:46.895Z,50.87
2019-05-21T03:36:32.745Z,49.30
2019-05-21T03:38:51.367Z,47.08
2019-05-21T03:41:22.272Z,44.85
2019-05-21T03:43:53.110Z,43.17
2019-05-21T03:46:24.277Z,41.96
2019-05-21T03:48:54.989Z,41.19
2019-05-21T03:51:25.785Z,40.21
2019-05-21T03:53:56.536Z,39.04
2019-05-21T03:56:27.490Z,37.92
2019-05-21T03:58:58.713Z,37.21
2019-05-21T04:01:29.115Z,36.45
2019-05-21T04:03:59.899Z,35.42
2019-05-21T04:06:30.366Z,34.43
2019-05-21T04:09:00.755Z,33.46
2019-05-21T04:11:31.236Z,32.70
2019-05-21T04:14:02.345Z,31.50
2019-05-21T04:16:50.017Z,30.97
2019-05-21T04:19:27.210Z,30.24
2019-05-21T04:21:57.955Z,29.85
2019-05-21T04:24:28.864Z,29.63
2019-05-21T04:26:59.743Z,29.15
2019-05-21T04:29:31.304Z,29.92
2019-05-21T04:32:01.922Z,29.04
2019-05-21T04:34:33.699Z,28.83
2019-05-21T04:37:10.590Z,28.63
2019-05-21T04:39:36.781Z,29.11
2019-05-21T04:42:07.538Z,29.11
2019-05-21T04:44:40.049Z,28.39
2019-05-21T04:47:10.711Z,28.36
2019-05-21T04:49:42.911Z,27.51
2019-05-21T04:52:13.736Z,27.36
2019-05-21T04:54:44.313Z,27.38
2019-05-21T04:57:14.873Z,28.84
2019-05-21T04:59:45.558Z,28.57
2019-05-21T05:02:16.859Z,28.10
2019-05-21T05:04:49.503Z,26.96
2019-05-21T05:07:28.199Z,28.59
2019-05-21T05:09:53.148Z,29.12
2019-05-21T05:12:24.208Z,29.48
2019-05-21T05:14:54.969Z,31.68
2019-05-21T05:17:26.807Z,30.37
2019-05-21T05:19:57.766Z,28.34
2019-05-21T05:22:28.544Z,27.49
2019-05-21T05:24:59.309Z,26.60
2019-05-21T05:27:30.160Z,25.62
2019-05-21T05:30:02.886Z,25.75
2019-05-21T05:32:33.630Z,24.74
2019-05-21T05:35:05.444Z,25.58
2019-05-21T05:37:44.267Z,25.62
2019-05-21T05:40:09.075Z,25.99
2019-05-21T05:42:39.471Z,26.13
2019-05-21T05:45:11.023Z,25.90
2019-05-21T05:47:41.940Z,25.14
2019-05-21T05:50:17.017Z,24.13
2019-05-21T05:52:47.801Z,24.17
2019-05-21T05:55:18.902Z,23.39
2019-05-21T05:57:49.380Z,23.26
2019-05-21T06:00:20.208Z,22.19
2019-05-21T06:02:50.875Z,21.95
2019-05-21T06:05:21.550Z,21.66
2019-05-21T06:07:59.695Z,22.19
2019-05-21T06:10:24.842Z,23.68
2019-05-21T06:12:55.601Z,24.90
2019-05-21T06:15:26.406Z,26.39
2019-05-21T06:17:58.724Z,25.32
2019-05-21T06:20:29.471Z,24.93
2019-05-21T06:23:00.348Z,23.90
2019-05-21T06:25:31.319Z,24.89
2019-05-21T06:28:02.257Z,25.30
2019-05-21T06:30:33.946Z,27.00
2019-05-21T06:33:04.669Z,28.46
2019-05-21T06:35:35.356Z,26.72
2019-05-21T06:38:17.081Z,26.86
2019-05-21T06:40:39.940Z,26.32
2019-05-21T06:43:10.702Z,25.23
2019-05-21T06:45:41.703Z,25.40
2019-05-21T06:48:13.318Z,25.77
2019-05-21T06:50:44.678Z,26.97
2019-05-21T06:53:15.337Z,26.01
2019-05-21T06:55:46.473Z,25.18
2019-05-21T06:58:18.559Z,24.51
2019-05-21T07:00:49.222Z,23.89
2019-05-21T07:03:21.451Z,24.53
2019-05-21T07:05:58.796Z,24.47
2019-05-21T07:08:34.834Z,25.69
2019-05-21T07:10:58.858Z,25.47
2019-05-21T07:13:31.136Z,25.41
2019-05-21T07:16:01.942Z,26.15
2019-05-21T07:18:32.626Z,28.25
2019-05-21T07:21:03.700Z,27.51
2019-05-21T07:23:34.422Z,27.81
2019-05-21T07:26:06.739Z,28.04
2019-05-21T07:28:37.575Z,29.42
2019-05-21T07:31:09.236Z,29.65
2019-05-21T07:33:39.977Z,28.94
2019-05-21T07:36:10.910Z,29.27
2019-05-21T07:38:52.491Z,30.19
2019-05-21T07:41:14.128Z,31.31
2019-05-21T07:43:44.950Z,32.82
2019-05-21T07:46:15.907Z,32.03
2019-05-21T07:48:46.530Z,30.92
2019-05-21T07:51:17.508Z,31.00
2019-05-21T07:53:48.241Z,32.47
2019-05-21T07:56:19.233Z,33.35
2019-05-21T07:58:49.975Z,36.29
2019-05-21T08:01:22.266Z,38.02
2019-05-21T08:03:53.261Z,42.15
2019-05-21T08:06:25.469Z,44.43
2019-05-21T08:09:12.765Z,47.57
2019-05-21T08:11:31.306Z,48.63
2019-05-21T08:14:03.629Z,48.33
2019-05-21T08:16:34.500Z,48.83
2019-05-21T08:19:05.317Z,49.20
2019-05-21T08:21:36.137Z,50.09
2019-05-21T08:24:07.011Z,50.28
2019-05-21T08:26:37.601Z,51.75
2019-05-21T08:29:08.297Z,51.27
2019-05-21T08:31:40.083Z,52.61
2019-05-21T08:34:11.082Z,53.19
2019-05-21T08:36:41.932Z,53.35
2019-05-21T08:39:27.626Z,52.48
2019-05-21T08:41:45.969Z,53.78
2019-05-21T08:44:16.714Z,54.05
2019-05-21T08:46:48.676Z,53.49
2019-05-21T08:49:19.717Z,55.60
2019-05-21T08:51:50.592Z,55.55
2019-05-21T08:54:40.168Z,52.34
2019-05-21T08:57:11.179Z,53.65
2019-05-21T08:59:41.949Z,52.79
2019-05-21T09:02:12.781Z,53.28
2019-05-21T09:04:46.649Z,52.11
2019-05-21T09:07:17.337Z,50.09
2019-05-21T09:09:51.002Z,50.02
2019-05-21T09:12:20.704Z,52.09
2019-05-21T09:14:52.618Z,49.08
2019-05-21T09:17:23.323Z,51.06
2019-05-21T09:19:54.319Z,50.80
2019-05-21T09:22:25.709Z,50.63
2019-05-21T09:24:56.578Z,52.02
2019-05-21T09:27:27.117Z,50.73
2019-05-21T09:29:58.936Z,49.06
2019-05-21T09:32:30.161Z,51.33
2019-05-21T09:35:02.103Z,51.30
2019-05-21T09:37:33.218Z,48.71
2019-05-21T09:40:05.323Z,49.14
2019-05-21T09:42:37.483Z,49.74
2019-05-21T09:45:09.288Z,49.77
2019-05-21T09:47:40.620Z,49.30
2019-05-21T09:50:11.933Z,50.38
2019-05-21T09:52:42.654Z,50.55
2019-05-21T09:55:13.782Z,50.77
2019-05-21T09:57:57.747Z,50.83
2019-05-21T10:01:06.564Z,51.11
2019-05-21T10:03:40.994Z,51.71
2019-05-21T10:06:11.683Z,52.12
2019-05-21T10:08:42.373Z,52.36
2019-05-21T10:11:13.207Z,52.11
2019-05-21T10:13:44.069Z,52.13
2019-05-21T10:16:15.075Z,51.76
2019-05-21T10:18:47.350Z,53.31
2019-05-21T10:21:18.464Z,54.27
2019-05-21T10:23:50.808Z,52.99
2019-05-21T10:26:21.857Z,52.94
2019-05-21T10:28:52.764Z,51.97
2019-05-21T10:31:23.769Z,51.69
2019-05-21T10:33:54.657Z,52.90
2019-05-21T10:36:25.520Z,52.10
2019-05-21T10:38:56.575Z,51.70
2019-05-21T10:41:27.564Z,50.49
2019-05-21T10:44:00.518Z,49.68
2019-05-21T10:46:31.348Z,49.99
2019-05-21T10:49:02.108Z,49.96
2019-05-21T10:51:32.939Z,49.90
2019-05-21T10:54:04.223Z,49.68
2019-05-21T10:56:47.214Z,50.04
2019-05-21T10:59:07.868Z,50.11
2019-05-21T11:01:56.350Z,50.71
2019-05-21T11:04:52.585Z,50.52
2019-05-21T11:07:24.043Z,49.38
2019-05-21T11:09:55.181Z,48.66
2019-05-21T11:12:26.492Z,48.44
2019-05-21T11:14:57.748Z,48.86
2019-05-21T11:17:28.458Z,49.00
2019-05-21T11:19:59.301Z,49.30
2019-05-21T11:22:32.371Z,49.86
2019-05-21T11:25:05.203Z,51.09
2019-05-21T11:27:37.205Z,52.89
2019-05-21T11:30:09.378Z,53.82
2019-05-21T11:32:40.082Z,55.16
2019-05-21T11:35:11.217Z,55.01
2019-05-21T11:37:42.120Z,55.42
2019-05-21T11:40:13.613Z,55.37
2019-05-21T11:42:44.934Z,55.22
2019-05-21T11:45:31.039Z,54.93
2019-05-21T11:47:48.716Z,53.55
2019-05-21T11:50:19.930Z,54.88
2019-05-21T11:52:50.870Z,54.79
2019-05-21T11:55:21.534Z,53.85
2019-05-21T11:57:52.300Z,55.07
2019-05-21T12:00:26.908Z,54.92
2019-05-21T12:02:57.288Z,54.12
2019-05-21T12:05:27.719Z,54.15
2019-05-21T12:07:58.319Z,55.42
2019-05-21T12:10:28.683Z,55.51
2019-05-21T12:12:59.053Z,56.03
2019-05-21T12:15:29.469Z,57.83
2019-05-21T12:17:59.878Z,57.05
2019-05-21T12:20:36.883Z,55.69
2019-05-21T12:23:03.217Z,55.62
2019-05-21T12:25:33.950Z,54.75
2019-05-21T12:28:06.220Z,55.58
2019-05-21T12:30:36.801Z,56.13
2019-05-21T12:33:07.665Z,57.63
2019-05-21T12:35:41.620Z,56.69
2019-05-21T12:38:12.124Z,58.02
2019-05-21T12:40:42.698Z,55.51
2019-05-21T12:43:13.496Z,54.82
2019-05-21T12:45:43.956Z,52.29
2019-05-21T12:48:14.319Z,53.23
2019-05-21T12:50:45.828Z,53.83
2019-05-21T12:53:16.807Z,55.25
2019-05-21T12:55:47.964Z,55.98
2019-05-21T12:58:18.346Z,56.33
2019-05-21T13:00:50.985Z,55.47
2019-05-21T13:03:21.755Z,55.79
2019-05-21T13:05:52.433Z,56.42
2019-05-21T13:08:23.233Z,57.14
2019-05-21T13:10:54.037Z,58.14
2019-05-21T13:13:24.908Z,59.22
2019-05-21T13:15:56.102Z,59.53
2019-05-21T13:18:26.884Z,60.47
2019-05-21T13:20:57.425Z,60.30
2019-05-21T13:23:28.741Z,59.91
2019-05-21T13:25:59.522Z,59.82
2019-05-21T13:28:30.294Z,59.76
2019-05-21T13:31:00.996Z,59.46
2019-05-21T13:33:31.575Z,58.35
2019-05-21T13:36:05.802Z,59.97
2019-05-21T13:38:36.636Z,61.65
2019-05-21T13:41:07.874Z,59.91
2019-05-21T13:43:38.644Z,59.27
2019-05-21T13:46:09.567Z,59.61
2019-05-21T13:48:47.061Z,60.97
2019-05-21T13:51:19.114Z,61.66
2019-05-21T13:53:50.028Z,60.88
2019-05-21T13:56:20.969Z,63.63
2019-05-21T13:58:51.913Z,66.69
2019-05-21T14:01:39.357Z,71.36
2019-05-21T14:03:56.300Z,73.60
2019-05-21T14:06:26.974Z,73.03
2019-05-21T14:08:57.642Z,74.91
2019-05-21T14:11:28.896Z,74.79
2019-05-21T14:13:59.683Z,74.07
2019-05-21T14:16:30.417Z,72.75
2019-05-21T14:19:03.116Z,73.92
2019-05-21T14:21:33.697Z,75.33
2019-05-21T14:24:04.760Z,75.88
2019-05-21T14:26:35.514Z,73.34
2019-05-21T14:29:06.796Z,73.35
2019-05-21T14:31:37.343Z,76.75
2019-05-21T14:34:07.701Z,71.01
2019-05-21T14:36:39.915Z,70.08
2019-05-21T14:39:14.032Z,68.25
2019-05-21T14:41:44.479Z,66.04
2019-05-21T14:44:14.867Z,65.02
2019-05-21T14:46:45.451Z,61.50
2019-05-21T14:49:16.325Z,61.25
2019-05-21T14:51:46.876Z,58.60
2019-05-21T14:54:26.161Z,59.10
2019-05-21T14:56:49.648Z,57.14
2019-05-21T14:59:20.085Z,58.76
2019-05-21T15:01:51.066Z,57.99
2019-05-21T15:04:21.727Z,58.65
2019-05-21T15:06:52.453Z,59.26
2019-05-21T15:09:22.849Z,61.36
2019-05-21T15:11:53.252Z,59.83
2019-05-21T15:14:24.487Z,57.88
2019-05-21T15:16:55.389Z,60.50
2019-05-21T15:19:26.137Z,60.88
2019-05-21T15:21:57.279Z,60.77
2019-05-21T15:24:33.317Z,63.32
2019-05-21T15:27:04.011Z,60.62
2019-05-21T15:29:34.735Z,62.75
2019-05-21T15:32:05.413Z,62.96
2019-05-21T15:34:37.330Z,61.54
2019-05-21T15:37:08.880Z,60.73
2019-05-21T15:39:39.719Z,62.73
2019-05-21T15:42:10.499Z,61.40
2019-05-21T15:44:42.748Z,61.72
2019-05-21T15:47:14.092Z,64.45
2019-05-21T15:49:45.654Z,65.61
2019-05-21T15:52:16.484Z,65.84
2019-05-21T15:54:47.147Z,64.76
2019-05-21T15:57:17.940Z,63.59
2019-05-21T15:59:48.873Z,63.99
2019-05-21T16:02:19.619Z,62.64
2019-05-21T16:04:50.377Z,60.40
2019-05-21T16:07:22.311Z,60.00
2019-05-21T16:09:53.203Z,60.04
2019-05-21T16:12:24.292Z,60.65
2019-05-21T16:14:55.714Z,61.04
2019-05-21T16:17:26.763Z,59.92
2019-05-21T16:19:57.389Z,58.49
2019-05-21T16:22:28.137Z,56.32
2019-05-21T16:24:59.032Z,56.93
2019-05-21T16:27:30.054Z,58.34
2019-05-21T16:30:00.883Z,59.25
2019-05-21T16:32:32.109Z,59.59
2019-05-21T16:35:02.886Z,59.14
2019-05-21T16:37:35.259Z,60.16
2019-05-21T16:40:08.035Z,59.86
2019-05-21T16:42:39.022Z,61.09
2019-05-21T16:45:11.738Z,61.65
2019-05-21T16:47:46.054Z,62.86
2019-05-21T16:50:17.181Z,63.16
2019-05-21T16:52:48.057Z,62.18
2019-05-21T16:55:18.944Z,60.24
2019-05-21T16:57:51.393Z,59.75
2019-05-21T17:00:22.665Z,59.64
2019-05-21T17:02:53.039Z,61.76
2019-05-21T17:05:24.459Z,64.47
2019-05-21T17:07:54.788Z,65.53
2019-05-21T17:10:25.377Z,66.89
2019-05-21T17:12:55.759Z,69.96
2019-05-21T17:15:26.295Z,68.21
2019-05-21T17:17:56.768Z,71.38
2019-05-21T17:20:27.748Z,73.60
2019-05-21T17:22:58.655Z,75.00
2019-05-21T17:25:28.983Z,75.76
2019-05-21T17:27:59.458Z,75.87
2019-05-21T17:30:29.924Z,78.08
2019-05-21T17:33:00.381Z,80.05
2019-05-21T17:35:30.871Z,80.27
2019-05-21T17:38:02.473Z,80.17
2019-05-21T17:40:33.474Z,80.21
2019-05-21T17:43:04.138Z,80.88
2019-05-21T17:45:34.797Z,81.07
2019-05-21T17:48:05.718Z,80.48
2019-05-21T17:50:37.814Z,81.50
2019-05-21T17:53:08.545Z,82.06
2019-05-21T17:55:39.547Z,82.56
2019-05-21T17:58:10.588Z,83.66
2019-05-21T18:00:52.500Z,82.24
2019-05-21T18:03:23.420Z,82.22
2019-05-21T18:05:55.477Z,81.01
2019-05-21T18:08:27.236Z,80.20
2019-05-21T18:10:57.838Z,78.20
2019-05-21T18:13:28.601Z,78.28
2019-05-21T18:15:59.445Z,78.31
2019-05-21T18:18:30.531Z,77.90
2019-05-21T18:21:02.385Z,75.95
2019-05-21T18:23:33.274Z,75.54
2019-05-21T18:26:03.749Z,74.53
2019-05-21T18:28:34.693Z,73.09
2019-05-21T18:31:05.542Z,69.34
2019-05-21T18:33:35.929Z,68.70
2019-05-21T18:36:06.543Z,69.17
2019-05-21T18:38:37.921Z,69.37
2019-05-21T18:41:08.348Z,67.49
2019-05-21T18:43:38.713Z,68.41
2019-05-21T18:46:09.122Z,67.87
2019-05-21T18:48:39.615Z,68.04
2019-05-21T18:51:10.013Z,68.23
2019-05-21T18:53:40.384Z,67.57
2019-05-21T18:56:10.869Z,67.11
2019-05-21T18:58:44.292Z,66.02
2019-05-21T19:01:16.724Z,66.02
2019-05-21T19:03:47.154Z,65.42
2019-05-21T19:06:17.625Z,64.86
2019-05-21T19:08:48.143Z,65.46
2019-05-21T19:11:18.779Z,65.74
2019-05-21T19:13:49.460Z,65.41
2019-05-21T19:16:19.929Z,63.84
2019-05-21T19:18:50.783Z,63.95
2019-05-21T19:21:21.302Z,63.09
2019-05-21T19:23:53.246Z,62.98
2019-05-21T19:26:24.279Z,62.60
2019-05-21T19:28:54.747Z,61.80
2019-05-21T19:31:25.679Z,61.28
2019-05-21T19:33:56.212Z,61.05
2019-05-21T19:36:31.281Z,64.15
2019-05-21T19:39:02.821Z,66.05
2019-05-21T19:41:33.448Z,67.13
2019-05-21T19:44:03.869Z,68.04
2019-05-21T19:46:34.396Z,68.45
2019-05-21T19:49:04.795Z,68.03
2019-05-21T19:51:35.276Z,65.40
2019-05-21T19:54:05.788Z,65.52
2019-05-21T19:56:36.717Z,62.19
2019-05-21T19:59:07.389Z,61.53
2019-05-21T20:01:38.022Z,61.87
2019-05-21T20:04:10.120Z,64.33
2019-05-21T20:06:40.614Z,67.80
2019-05-21T20:09:15.286Z,69.10
2019-05-21T20:11:46.637Z,70.98
2019-05-21T20:14:16.999Z,72.94
2019-05-21T20:16:48.127Z,74.68
2019-05-21T20:19:21.534Z,74.62
2019-05-21T20:21:51.944Z,74.24
2019-05-21T20:24:23.128Z,74.21
2019-05-21T20:26:53.501Z,74.34
2019-05-21T20:29:24.111Z,74.06
2019-05-21T20:31:54.595Z,74.16
2019-05-21T20:34:25.485Z,74.98
2019-05-21T20:37:00.274Z,75.70
2019-05-21T20:39:41.603Z,76.03
2019-05-21T20:42:13.902Z,76.48
2019-05-21T20:44:46.811Z,77.52
2019-05-21T20:47:18.522Z,77.87
2019-05-21T20:49:50.997Z,77.44
2019-05-21T20:52:21.869Z,77.12
2019-05-21T20:54:54.643Z,76.58
2019-05-21T20:57:25.549Z,76.55
2019-05-21T20:59:56.252Z,75.12
2019-05-21T21:02:28.595Z,74.47
2019-05-21T21:04:59.075Z,74.24
2019-05-21T21:07:31.067Z,74.37
2019-05-21T21:10:02.516Z,74.52
2019-05-21T21:12:33.517Z,75.25
2019-05-21T21:15:04.131Z,75.39
2019-05-21T21:17:35.283Z,74.67
2019-05-21T21:20:08.029Z,74.34
2019-05-21T21:22:38.371Z,74.69
2019-05-21T21:25:10.624Z,75.45
2019-05-21T21:27:42.880Z,75.17
2019-05-21T21:30:13.782Z,76.52
2019-05-21T21:32:44.595Z,77.06
2019-05-21T21:35:16.037Z,77.60
2019-05-21T21:37:52.768Z,77.72
2019-05-21T21:40:25.084Z,76.83
2019-05-21T21:42:57.981Z,76.90
2019-05-21T21:45:29.046Z,77.17
2019-05-21T21:47:59.855Z,77.32
2019-05-21T21:50:32.096Z,77.38
2019-05-21T21:53:03.530Z,77.29
2019-05-21T21:55:35.330Z,77.30
2019-05-21T21:58:09.658Z,77.36
2019-05-21T22:01:20.824Z,77.36
2019-05-21T22:03:53.404Z,77.67
2019-05-21T22:06:27.101Z,78.24
2019-05-21T22:08:58.537Z,78.67
2019-05-21T22:11:30.156Z,78.93
2019-05-21T22:14:01.394Z,79.23
2019-05-21T22:16:33.027Z,79.62
2019-05-21T22:19:03.642Z,79.78
2019-05-21T22:21:34.393Z,79.66
2019-05-21T22:24:05.514Z,79.71
2019-05-21T22:26:37.452Z,79.63
2019-05-21T22:29:08.447Z,80.21
2019-05-21T22:31:39.608Z,79.91
2019-05-21T22:34:10.967Z,79.45
2019-05-21T22:36:42.660Z,76.89
2019-05-21T22:39:20.439Z,75.50
2019-05-21T22:41:51.216Z,74.39
2019-05-21T22:44:22.732Z,73.60
2019-05-21T22:46:54.110Z,72.46
2019-05-21T22:49:33.081Z,71.54
2019-05-21T22:51:59.176Z,71.16
2019-05-21T22:54:30.118Z,70.42
2019-05-21T22:57:00.864Z,69.81
2019-05-21T22:59:31.680Z,69.78
2019-05-21T23:02:04.115Z,69.29
2019-05-21T23:04:34.839Z,68.35
2019-05-21T23:07:06.053Z,67.64
2019-05-21T23:09:36.910Z,66.79
2019-05-21T23:12:08.675Z,65.86
2019-05-21T23:14:39.668Z,64.46
2019-05-21T23:17:12.448Z,63.74
2019-05-21T23:19:45.311Z,63.41
2019-05-21T23:22:18.767Z,62.65
2019-05-21T23:24:50.156Z,62.82
2019-05-21T23:27:23.147Z,62.90
2019-05-21T23:29:54.591Z,61.97
2019-05-21T23:32:25.453Z,61.38
2019-05-21T23:34:56.228Z,60.90
2019-05-21T23:37:28.876Z,61.02
2019-05-21T23:40:02.456Z,60.97
2019-05-21T23:42:34.634Z,61.13
2019-05-21T23:45:06.121Z,61.89
2019-05-21T23:47:38.707Z,61.84
2019-05-21T23:50:11.059Z,61.59
2019-05-21T23:52:42.136Z,62.04
2019-05-21T23:55:13.404Z,62.54
2019-05-21T23:57:45.067Z,62.66
